Terminal Aerodrome Forecast
Issued by NWS Nashville, TN

Home | Current Version | Previous Version | Text Only | Print | Product List | Glossary On
Versions: 1 2 3 4 5 6 7 8 9 10 11 12 13 14 15
067
FTUS44 KOHX 221506 AAB
TAFBNA
TAF AMD
KBNA 221506Z 2215/2312 16012G22KT P6SM BKN120
     FM221800 17014G22KT P6SM BKN120
     FM230000 16010G16KT P6SM VCSH BKN040
     FM230300 16008KT 3SM -SHRA SCT007 OVC012
     FM231000 30008KT 6SM -SHRA OVC007=

USA.gov is the U.S. government's official web portal to all federal, state and local government web resources and services.